Time;durP1;ratioP1;P1;durP2;ratioP2;P2;SDS_P1;SDS_P2;PMS_P1;PMS_P2;Temp;Humidity;BMP_temperature;BMP_pressure;BME280_temperature;BME280_humidity;BME280_pressure;Samples;Min_cycle;Max_cycle;Signal;HPM_P1;HPM_P2
2021/01/21 00:00:18;;;;;;;3.77;1.50;;;10.10;80.10;;;;;;5074958;28;20201;-63
2021/01/21 00:02:44;;;;;;;2.73;1.20;;;10.10;79.70;;;;;;5074736;28;20331;-63
2021/01/21 00:05:12;;;;;;;1.17;0.97;;;10.20;79.50;;;;;;5074504;28;20224;-62
2021/01/21 00:07:38;;;;;;;1.80;0.97;;;10.30;79.00;;;;;;5074924;28;20661;-62
2021/01/21 00:10:05;;;;;;;1.77;1.10;;;10.20;78.40;;;;;;5075335;28;20201;-62
2021/01/21 00:12:32;;;;;;;2.37;1.30;;;10.30;78.20;;;;;;5074998;28;20205;-62
2021/01/21 00:14:58;;;;;;;2.77;1.30;;;10.20;77.30;;;;;;5074641;28;20225;-62
2021/01/21 00:17:24;;;;;;;1.40;1.17;;;10.40;77.20;;;;;;5074684;28;20627;-63
2021/01/21 00:19:51;;;;;;;0.80;0.70;;;10.40;76.70;;;;;;5074457;28;20211;-62
2021/01/21 00:22:17;;;;;;;1.30;0.90;;;10.40;76.70;;;;;;5075093;28;20205;-62
2021/01/21 00:24:43;;;;;;;2.20;0.90;;;10.50;76.70;;;;;;5074908;28;20217;-62
2021/01/21 00:27:09;;;;;;;1.50;0.90;;;10.50;75.90;;;;;;5075121;28;20573;-62
2021/01/21 00:29:36;;;;;;;2.47;0.90;;;10.40;76.50;;;;;;5074856;28;20259;-62
2021/01/21 00:32:03;;;;;;;1.70;1.10;;;10.50;76.30;;;;;;5074444;28;20228;-62
2021/01/21 00:34:29;;;;;;;1.20;1.10;;;10.50;76.30;;;;;;5073985;28;20205;-63
2021/01/21 00:36:55;;;;;;;2.13;1.20;;;10.60;76.20;;;;;;5074187;28;20237;-62
2021/01/21 00:39:21;;;;;;;1.40;1.07;;;10.60;75.70;;;;;;5074889;28;20209;-62
2021/01/21 00:41:47;;;;;;;1.90;1.27;;;10.60;75.90;;;;;;5074725;28;20201;-62
2021/01/21 00:44:13;;;;;;;1.10;1.00;;;10.60;75.90;;;;;;5074206;28;20209;-63
2021/01/21 00:46:40;;;;;;;1.63;1.27;;;10.50;76.00;;;;;;5073803;28;20229;-63
2021/01/21 00:49:07;;;;;;;2.27;1.10;;;10.60;75.70;;;;;;5073781;28;20209;-62
2021/01/21 00:51:33;;;;;;;1.60;0.90;;;10.60;75.80;;;;;;5074309;28;20208;-62
2021/01/21 00:53:59;;;;;;;1.60;1.10;;;10.60;76.00;;;;;;5074376;28;20209;-62
2021/01/21 00:56:25;;;;;;;1.13;0.90;;;10.50;75.80;;;;;;5073841;28;20224;-62
2021/01/21 00:58:52;;;;;;;1.27;1.07;;;10.60;75.90;;;;;;5073542;28;20240;-63
2021/01/21 01:01:18;;;;;;;3.03;1.10;;;10.60;75.80;;;;;;5074061;28;20209;-63
2021/01/21 01:03:46;;;;;;;1.20;0.90;;;10.60;75.80;;;;;;5074124;28;20208;-63
2021/01/21 01:06:12;;;;;;;1.67;1.10;;;10.60;75.60;;;;;;5075101;28;20713;-63
2021/01/21 01:08:38;;;;;;;2.30;1.17;;;10.60;75.50;;;;;;5074786;28;20201;-63
2021/01/21 01:11:04;;;;;;;0.70;0.70;;;10.50;75.70;;;;;;5075011;28;20201;-63
2021/01/21 01:13:31;;;;;;;1.23;0.90;;;10.50;75.00;;;;;;5074887;28;20737;-63
2021/01/21 01:15:58;;;;;;;1.30;0.80;;;10.60;75.10;;;;;;5074310;28;20287;-62
2021/01/21 01:18:24;;;;;;;1.93;1.00;;;10.70;75.10;;;;;;5074060;28;20479;-63
2021/01/21 01:20:51;;;;;;;1.43;1.13;;;10.80;74.60;;;;;;5074426;28;20204;-62
2021/01/21 01:23:17;;;;;;;1.97;1.03;;;10.90;74.60;;;;;;5074408;28;20208;-63
2021/01/21 01:25:43;;;;;;;1.70;1.00;;;10.90;74.50;;;;;;5073437;28;20378;-63
2021/01/21 01:28:09;;;;;;;1.60;1.10;;;10.90;74.40;;;;;;5073471;28;20204;-63
2021/01/21 01:30:36;;;;;;;1.93;0.97;;;11.00;74.40;;;;;;5073527;28;20201;-63
2021/01/21 01:33:02;;;;;;;3.00;1.00;;;11.00;74.20;;;;;;5073086;28;20205;-63
2021/01/21 01:35:28;;;;;;;1.47;0.80;;;11.00;74.10;;;;;;5073074;28;20224;-63
2021/01/21 01:37:55;;;;;;;1.80;0.90;;;11.00;73.90;;;;;;5074473;28;20209;-62
2021/01/21 01:40:21;;;;;;;1.33;0.87;;;11.00;73.60;;;;;;5073790;28;20274;-62
2021/01/21 01:42:48;;;;;;;1.47;0.90;;;11.00;73.20;;;;;;5073427;28;20216;-63
2021/01/21 01:45:14;;;;;;;1.10;0.80;;;11.00;72.90;;;;;;5073383;28;20229;-63
2021/01/21 01:47:43;;;;;;;0.93;0.50;;;11.10;72.60;;;;;;5073975;28;20556;-63
2021/01/21 01:50:10;;;;;;;1.57;1.10;;;11.20;72.70;;;;;;5074142;28;20204;-62
2021/01/21 01:52:41;;;;;;;2.10;0.77;;;11.10;72.10;;;;;;5073858;28;20277;-62
2021/01/21 01:55:11;;;;;;;1.40;1.00;;;11.20;72.70;;;;;;5073951;28;20248;-63
2021/01/21 01:57:37;;;;;;;1.47;0.93;;;11.20;71.60;;;;;;5073407;28;20225;-63
2021/01/21 02:00:05;;;;;;;3.07;0.83;;;11.30;71.60;;;;;;5073992;28;20239;-62
2021/01/21 02:02:32;;;;;;;1.57;0.80;;;11.30;71.60;;;;;;5072733;28;20204;-63
2021/01/21 02:04:59;;;;;;;1.97;1.10;;;11.40;71.50;;;;;;5072616;28;20260;-63
2021/01/21 02:07:25;;;;;;;1.77;1.07;;;11.30;70.90;;;;;;5072614;28;20657;-62
2021/01/21 02:09:52;;;;;;;3.13;1.10;;;11.30;70.90;;;;;;5071893;28;20692;-62
2021/01/21 02:12:40;;;;;;;2.17;1.17;;;11.30;71.00;;;;;;5072373;28;20216;-63
2021/01/21 02:15:12;;;;;;;2.43;1.07;;;11.40;70.90;;;;;;5072670;28;20298;-63
2021/01/21 02:17:47;;;;;;;1.97;1.20;;;11.40;71.10;;;;;;5073171;28;20236;-63
2021/01/21 02:20:45;;;;;;;1.77;1.07;;;11.40;71.00;;;;;;5073595;28;20219;-62
2021/01/21 02:23:52;;;;;;;1.70;0.83;;;11.50;71.10;;;;;;5072913;28;20617;-63
2021/01/21 02:26:24;;;;;;;2.30;1.10;;;11.40;70.70;;;;;;5072383;28;20271;-62
2021/01/21 02:29:09;;;;;;;1.97;1.37;;;11.40;70.40;;;;;;5072418;28;20216;-62
2021/01/21 02:32:08;;;;;;;1.83;0.90;;;11.50;70.30;;;;;;5072577;28;20205;-62
2021/01/21 02:34:40;;;;;;;0.93;0.60;;;11.50;69.80;;;;;;5072089;28;20584;-62
2021/01/21 02:37:14;;;;;;;1.37;1.10;;;11.60;69.70;;;;;;5071931;28;20228;-63
2021/01/21 02:39:44;;;;;;;2.83;1.00;;;11.60;69.80;;;;;;5072539;28;20189;-62
2021/01/21 02:42:10;;;;;;;1.40;1.10;;;11.60;70.10;;;;;;5071953;28;20210;-62
2021/01/21 02:44:36;;;;;;;2.03;1.07;;;11.60;70.60;;;;;;5071443;28;20673;-62
2021/01/21 02:47:03;;;;;;;2.27;0.60;;;11.70;70.80;;;;;;5071797;28;20208;-62
2021/01/21 02:49:29;;;;;;;1.20;0.60;;;11.60;70.20;;;;;;5071605;28;20209;-62
2021/01/21 02:52:08;;;;;;;1.93;0.70;;;11.60;70.40;;;;;;5072021;28;20574;-63
2021/01/21 02:54:44;;;;;;;1.40;0.60;;;11.60;73.10;;;;;;5071741;28;20207;-62
2021/01/21 02:57:18;;;;;;;1.83;0.70;;;11.70;72.70;;;;;;5071739;28;20260;-63
2021/01/21 02:59:44;;;;;;;1.30;0.67;;;11.80;71.80;;;;;;5071814;28;20204;-63
2021/01/21 03:02:12;;;;;;;1.00;0.87;;;11.90;69.80;;;;;;5072071;28;20539;-63
2021/01/21 03:04:39;;;;;;;1.03;0.60;;;12.00;68.80;;;;;;5071935;28;20246;-62
2021/01/21 03:07:08;;;;;;;0.50;0.50;;;11.90;67.70;;;;;;5071771;28;20688;-62
2021/01/21 03:09:35;;;;;;;0.70;0.50;;;11.80;67.40;;;;;;5071430;28;20205;-62
2021/01/21 03:12:17;;;;;;;1.37;0.67;;;11.90;67.00;;;;;;5071273;28;20798;-62
2021/01/21 03:14:44;;;;;;;1.53;0.60;;;12.00;67.10;;;;;;5071027;28;20231;-62
2021/01/21 03:17:10;;;;;;;1.20;0.60;;;12.10;66.50;;;;;;5071088;28;20233;-62
2021/01/21 03:19:36;;;;;;;1.10;0.70;;;12.10;66.20;;;;;;5071051;28;20611;-62
2021/01/21 03:22:02;;;;;;;0.80;0.80;;;12.20;66.40;;;;;;5070395;28;20209;-63
2021/01/21 03:24:30;;;;;;;3.73;0.90;;;12.20;65.90;;;;;;5071064;28;20224;-63
2021/01/21 03:26:56;;;;;;;2.43;0.90;;;12.20;65.90;;;;;;5072747;28;20255;-63
2021/01/21 03:29:22;;;;;;;3.20;0.90;;;12.20;65.60;;;;;;5071396;28;20220;-63
2021/01/21 03:31:48;;;;;;;0.83;0.70;;;12.20;65.30;;;;;;5071701;28;20575;-63
2021/01/21 03:34:14;;;;;;;1.70;0.63;;;12.20;65.30;;;;;;5071284;28;20216;-63
2021/01/21 03:36:40;;;;;;;1.00;0.70;;;12.20;65.00;;;;;;5071287;28;20225;-63
2021/01/21 03:39:07;;;;;;;1.20;0.70;;;12.30;64.60;;;;;;5071396;28;20691;-62
2021/01/21 03:41:34;;;;;;;1.27;0.63;;;12.30;64.90;;;;;;5071350;28;20205;-62
2021/01/21 03:44:00;;;;;;;0.60;0.60;;;12.30;65.10;;;;;;5071113;28;20201;-62
2021/01/21 03:46:26;;;;;;;1.10;0.80;;;12.30;65.10;;;;;;5071757;28;20421;-63
2021/01/21 03:48:52;;;;;;;0.60;0.60;;;12.40;65.20;;;;;;5071260;28;20730;-62
2021/01/21 03:51:19;;;;;;;0.70;0.50;;;12.30;65.20;;;;;;5071405;28;20236;-63
2021/01/21 03:53:45;;;;;;;1.40;0.50;;;12.30;65.10;;;;;;5071296;28;20265;-62
2021/01/21 03:56:11;;;;;;;0.90;0.70;;;12.30;65.20;;;;;;5071408;28;20224;-62
2021/01/21 03:58:38;;;;;;;0.73;0.53;;;12.30;64.80;;;;;;5071226;28;20204;-62
2021/01/21 04:01:04;;;;;;;1.70;0.63;;;12.30;65.10;;;;;;5071600;28;20223;-62
2021/01/21 04:03:31;;;;;;;1.50;0.83;;;12.30;65.30;;;;;;5071144;28;20205;-62
2021/01/21 04:05:58;;;;;;;0.87;0.60;;;12.30;65.10;;;;;;5071235;28;20231;-62
2021/01/21 04:08:24;;;;;;;0.87;0.50;;;12.30;65.20;;;;;;5071112;28;20209;-61
2021/01/21 04:10:50;;;;;;;1.80;0.57;;;12.30;65.30;;;;;;5071331;28;20216;-61
2021/01/21 04:13:16;;;;;;;10.93;4.80;;;12.30;65.10;;;;;;5070830;28;20212;-61
2021/01/21 04:15:45;;;;;;;6.67;2.73;;;12.40;65.30;;;;;;5071662;28;20229;-62
2021/01/21 04:18:11;;;;;;;4.50;1.83;;;12.30;65.50;;;;;;5071692;28;20288;-61
2021/01/21 04:20:37;;;;;;;1.23;0.90;;;12.30;65.80;;;;;;5071099;28;20205;-62
2021/01/21 04:23:03;;;;;;;0.97;0.60;;;12.30;65.50;;;;;;5070697;28;20689;-61
2021/01/21 04:25:29;;;;;;;1.13;0.87;;;12.30;65.70;;;;;;5070522;28;20236;-62
2021/01/21 04:27:56;;;;;;;1.20;0.70;;;12.30;65.80;;;;;;5070587;28;20235;-62
2021/01/21 04:30:23;;;;;;;1.07;0.80;;;12.30;65.80;;;;;;5071108;28;20209;-62
2021/01/21 04:32:50;;;;;;;2.10;0.70;;;12.30;65.90;;;;;;5071998;28;20205;-62
2021/01/21 04:35:16;;;;;;;1.63;0.83;;;12.20;66.10;;;;;;5074269;28;20231;-62
2021/01/21 04:37:42;;;;;;;1.73;0.90;;;12.10;66.00;;;;;;5074381;28;20229;-62
2021/01/21 04:40:10;;;;;;;2.20;1.00;;;12.10;66.40;;;;;;5074223;28;20254;-63
2021/01/21 04:42:36;;;;;;;1.27;0.87;;;12.10;66.50;;;;;;5074113;28;20213;-63
2021/01/21 04:45:05;;;;;;;1.93;0.80;;;12.10;67.20;;;;;;5074089;28;20225;-61
2021/01/21 04:47:32;;;;;;;1.10;0.70;;;12.10;67.20;;;;;;5074067;28;20205;-63
2021/01/21 04:50:00;;;;;;;2.13;0.87;;;12.10;67.20;;;;;;5073969;28;20209;-63
2021/01/21 04:52:28;;;;;;;1.47;0.70;;;12.10;67.20;;;;;;5074119;28;20200;-63
2021/01/21 04:54:58;;;;;;;1.00;0.80;;;12.00;67.10;;;;;;5073827;28;20221;-63
2021/01/21 04:57:32;;;;;;;1.57;1.10;;;12.00;67.10;;;;;;5074659;28;20251;-63
2021/01/21 04:59:59;;;;;;;2.00;1.00;;;11.90;67.60;;;;;;5074243;28;20209;-62
2021/01/21 05:02:26;;;;;;;2.10;1.13;;;11.90;67.50;;;;;;5074454;28;20211;-61
2021/01/21 05:04:54;;;;;;;1.53;0.90;;;11.90;67.00;;;;;;5074398;28;20232;-63
2021/01/21 05:07:21;;;;;;;1.90;1.23;;;11.90;67.00;;;;;;5073929;28;20231;-63
2021/01/21 05:09:48;;;;;;;1.80;1.20;;;12.00;67.10;;;;;;5073873;28;20213;-63
2021/01/21 05:12:14;;;;;;;1.37;1.10;;;12.00;67.10;;;;;;5074092;28;20213;-63
2021/01/21 05:14:40;;;;;;;1.33;1.10;;;12.10;67.40;;;;;;5073870;28;20598;-63
2021/01/21 05:17:07;;;;;;;3.87;0.87;;;12.00;67.10;;;;;;5073862;28;20221;-63
2021/01/21 05:19:33;;;;;;;3.00;0.87;;;12.00;67.10;;;;;;5074063;28;20204;-63
2021/01/21 05:22:00;;;;;;;1.50;0.80;;;11.90;67.70;;;;;;5073820;28;20209;-63
2021/01/21 05:24:28;;;;;;;1.17;0.77;;;11.80;66.80;;;;;;5073643;28;20244;-63
2021/01/21 05:26:55;;;;;;;0.83;0.77;;;11.80;66.90;;;;;;5073203;28;20236;-63
2021/01/21 05:29:21;;;;;;;3.07;0.80;;;11.80;67.10;;;;;;5073424;28;20295;-63
2021/01/21 05:31:48;;;;;;;2.23;0.87;;;11.90;67.00;;;;;;5073376;28;20604;-63
2021/01/21 05:34:17;;;;;;;1.23;0.70;;;12.00;67.00;;;;;;5073224;28;20536;-63
2021/01/21 05:36:45;;;;;;;1.53;0.70;;;12.00;66.50;;;;;;5073075;28;20229;-63
2021/01/21 05:39:11;;;;;;;2.20;0.77;;;12.00;65.90;;;;;;5073988;28;20209;-63
2021/01/21 05:41:39;;;;;;;1.03;0.60;;;11.90;66.40;;;;;;5073408;28;20687;-63
2021/01/21 05:44:06;;;;;;;1.93;0.60;;;12.00;66.40;;;;;;5071888;28;20270;-62
2021/01/21 05:46:33;;;;;;;3.80;0.80;;;12.10;66.30;;;;;;5072774;28;20221;-63
2021/01/21 05:49:00;;;;;;;0.90;0.60;;;12.10;66.00;;;;;;5072709;28;20221;-63
2021/01/21 05:51:28;;;;;;;1.77;0.80;;;12.20;66.10;;;;;;5073351;28;20274;-62
2021/01/21 05:53:56;;;;;;;0.87;0.70;;;12.20;65.60;;;;;;5072798;28;20215;-62
2021/01/21 05:56:24;;;;;;;2.00;0.60;;;12.30;65.60;;;;;;5072725;28;20221;-64
2021/01/21 05:58:53;;;;;;;1.77;0.70;;;12.30;65.10;;;;;;5072916;28;20205;-63
2021/01/21 06:01:20;;;;;;;3.70;0.60;;;12.40;65.30;;;;;;5072692;28;20209;-63
2021/01/21 06:03:47;;;;;;;2.63;0.53;;;12.40;65.10;;;;;;5073120;28;20209;-63
2021/01/21 06:06:14;;;;;;;1.23;0.83;;;12.30;64.80;;;;;;5073109;28;20221;-63
2021/01/21 06:08:42;;;;;;;1.17;0.67;;;12.40;64.90;;;;;;5072795;28;20208;-61
2021/01/21 06:11:08;;;;;;;1.93;0.80;;;12.40;64.60;;;;;;5072614;28;20294;-63
2021/01/21 06:13:36;;;;;;;1.30;0.90;;;12.30;65.10;;;;;;5072296;28;20208;-63
2021/01/21 06:16:06;;;;;;;2.03;0.83;;;12.40;65.20;;;;;;5071973;28;20604;-62
2021/01/21 06:18:32;;;;;;;0.70;0.60;;;12.40;65.00;;;;;;5072457;28;20665;-62
2021/01/21 06:20:58;;;;;;;1.43;0.80;;;12.40;64.50;;;;;;5072545;28;20205;-62
2021/01/21 06:23:26;;;;;;;2.40;0.73;;;12.40;64.50;;;;;;5072378;28;20212;-62
2021/01/21 06:25:54;;;;;;;2.00;0.90;;;12.30;64.60;;;;;;5072257;28;20262;-63
2021/01/21 06:28:21;;;;;;;0.60;0.60;;;12.40;65.20;;;;;;5072245;28;20220;-62
2021/01/21 06:30:52;;;;;;;1.77;1.13;;;12.30;64.40;;;;;;5071981;28;20696;-62
2021/01/21 06:33:23;;;;;;;2.03;1.20;;;12.30;64.50;;;;;;5072832;28;20201;-62
2021/01/21 06:35:59;;;;;;;1.87;0.90;;;12.20;64.30;;;;;;5072213;28;20225;-62
2021/01/21 06:38:34;;;;;;;1.13;0.80;;;12.30;64.30;;;;;;5071726;28;20205;-62
2021/01/21 06:41:02;;;;;;;3.37;1.10;;;12.40;64.30;;;;;;5071752;28;20211;-61
2021/01/21 06:43:32;;;;;;;1.43;1.20;;;12.30;64.80;;;;;;5071937;28;20596;-62
2021/01/21 06:45:58;;;;;;;4.30;1.07;;;12.30;64.50;;;;;;5072308;28;20227;-62
2021/01/21 06:48:26;;;;;;;1.23;0.87;;;12.30;64.30;;;;;;5072189;28;20672;-62
2021/01/21 06:50:53;;;;;;;2.13;1.13;;;12.20;64.30;;;;;;5073074;28;20209;-62
2021/01/21 06:53:19;;;;;;;2.30;1.10;;;12.30;64.20;;;;;;5073212;28;20212;-63
2021/01/21 06:55:48;;;;;;;3.43;1.50;;;12.20;64.40;;;;;;5072487;28;20229;-63
2021/01/21 06:58:14;;;;;;;2.70;1.20;;;12.20;64.90;;;;;;5073008;28;20232;-63
2021/01/21 07:00:42;;;;;;;1.00;0.83;;;12.30;65.10;;;;;;5073472;28;20214;-64
2021/01/21 07:03:28;;;;;;;2.50;1.63;;;12.30;65.10;;;;;;5072966;28;20668;-62
2021/01/21 07:05:58;;;;;;;1.30;1.10;;;12.30;65.40;;;;;;5072709;28;20271;-62
2021/01/21 07:08:25;;;;;;;2.30;0.60;;;12.30;65.40;;;;;;5071973;28;20204;-62
2021/01/21 07:10:51;;;;;;;1.27;0.80;;;12.30;65.60;;;;;;5072278;28;20205;-62
2021/01/21 07:13:19;;;;;;;1.50;1.00;;;12.30;66.10;;;;;;5072202;28;20677;-61
2021/01/21 07:15:46;;;;;;;0.67;0.60;;;12.30;67.30;;;;;;5072164;28;20263;-62
2021/01/21 07:18:18;;;;;;;1.43;0.70;;;12.40;68.20;;;;;;5072286;28;20236;-63
2021/01/21 07:21:16;;;;;;;3.90;0.70;;;12.40;68.90;;;;;;5072111;28;20213;-62
2021/01/21 07:23:44;;;;;;;1.43;0.97;;;12.30;70.60;;;;;;5055559;28;20209;-62
2021/01/21 07:26:30;;;;;;;1.60;1.10;;;12.30;71.90;;;;;;5071617;28;20708;-63
2021/01/21 07:29:03;;;;;;;2.20;0.80;;;12.30;73.00;;;;;;5071523;28;20205;-63
2021/01/21 07:31:29;;;;;;;1.13;0.60;;;12.30;73.90;;;;;;5072187;28;20548;-63
2021/01/21 07:34:21;;;;;;;2.03;0.70;;;12.40;74.70;;;;;;5071433;28;20209;-62
2021/01/21 07:37:08;;;;;;;1.67;0.70;;;12.40;75.60;;;;;;5071638;28;20225;-62
2021/01/21 07:39:47;;;;;;;2.10;1.17;;;12.50;77.10;;;;;;5071476;28;20900;-63
2021/01/21 07:42:14;;;;;;;1.30;0.70;;;12.40;78.70;;;;;;5071487;28;20239;-63
2021/01/21 07:44:52;;;;;;;5.10;3.00;;;12.40;79.40;;;;;;5071419;28;20208;-63
2021/01/21 07:47:25;;;;;;;3.37;0.80;;;12.50;79.80;;;;;;5071505;28;20292;-63
2021/01/21 07:49:51;;;;;;;0.87;0.70;;;12.50;80.10;;;;;;5071540;28;20254;-63
2021/01/21 07:52:19;;;;;;;3.43;0.83;;;12.50;80.40;;;;;;5071633;28;20208;-62
2021/01/21 07:54:46;;;;;;;2.43;0.97;;;12.60;80.40;;;;;;5071649;28;20616;-62
2021/01/21 07:57:20;;;;;;;1.47;0.80;;;12.70;80.30;;;;;;5072399;28;20235;-62
2021/01/21 07:59:56;;;;;;;1.67;0.70;;;12.60;80.10;;;;;;5072237;28;20213;-63
2021/01/21 08:02:22;;;;;;;1.17;0.60;;;12.70;80.20;;;;;;5072184;28;20236;-62
2021/01/21 08:04:58;;;;;;;1.30;0.87;;;12.80;80.00;;;;;;5071405;28;20595;-63
2021/01/21 08:07:40;;;;;;;1.53;0.80;;;12.70;79.90;;;;;;5072445;28;20232;-63
2021/01/21 08:10:07;;;;;;;1.47;0.70;;;12.90;79.80;;;;;;5075608;28;20205;-63
2021/01/21 08:12:34;;;;;;;1.33;0.70;;;13.00;79.30;;;;;;5075587;28;20209;-67
2021/01/21 08:15:00;;;;;;;1.53;0.60;;;13.10;79.40;;;;;;5075377;28;20236;-63
2021/01/21 08:17:26;;;;;;;1.30;0.90;;;13.10;78.80;;;;;;5075606;28;20232;-63
2021/01/21 08:19:53;;;;;;;1.23;0.80;;;13.20;79.40;;;;;;5076308;28;20225;-63
2021/01/21 08:22:19;;;;;;;0.67;0.50;;;13.30;79.10;;;;;;5075391;28;20259;-63
2021/01/21 08:25:00;;;;;;;2.90;0.60;;;13.30;78.50;;;;;;5074579;28;20205;-63
2021/01/21 08:27:42;;;;;;;0.67;0.60;;;13.40;78.60;;;;;;5075343;28;20212;-63
2021/01/21 08:30:16;;;;;;;2.60;0.60;;;13.50;79.00;;;;;;5075048;28;20205;-62
2021/01/21 08:32:43;;;;;;;0.90;0.60;;;13.60;79.00;;;;;;5075416;28;20211;-63
2021/01/21 08:35:13;;;;;;;1.07;0.47;;;13.90;78.70;;;;;;5075088;28;20225;-63
2021/01/21 08:37:40;;;;;;;1.00;0.80;;;14.20;78.50;;;;;;5057353;28;20456;-66
2021/01/21 08:40:08;;;;;;;1.53;1.00;;;14.30;78.60;;;;;;5054560;28;20206;-62
2021/01/21 08:42:35;;;;;;;3.13;1.13;;;14.40;78.80;;;;;;5054371;28;20578;-62
2021/01/21 08:45:03;;;;;;;1.80;1.60;;;14.30;79.30;;;;;;5054071;28;20225;-64
2021/01/21 08:47:40;;;;;;;2.73;0.77;;;14.30;79.20;;;;;;5053997;28;20209;-62
2021/01/21 08:50:08;;;;;;;2.20;0.70;;;14.50;79.50;;;;;;5054608;28;20612;-65
2021/01/21 08:52:34;;;;;;;0.47;0.47;;;14.40;80.10;;;;;;5052485;28;20661;-66
2021/01/21 08:55:00;;;;;;;2.93;0.87;;;14.50;80.80;;;;;;5053875;28;20279;-65
2021/01/21 08:57:27;;;;;;;2.80;0.93;;;14.60;80.90;;;;;;5054139;28;20279;-65
2021/01/21 08:59:54;;;;;;;4.40;0.70;;;14.90;80.80;;;;;;5054073;28;20202;-65
2021/01/21 09:02:39;;;;;;;1.20;0.50;;;15.00;80.60;;;;;;5053776;28;20263;-64
2021/01/21 09:05:06;;;;;;;1.27;0.40;;;15.20;80.30;;;;;;5053986;28;20229;-63
2021/01/21 09:07:33;;;;;;;1.57;0.60;;;15.30;80.10;;;;;;5052952;28;20205;-63
2021/01/21 09:10:09;;;;;;;2.10;0.53;;;15.50;79.70;;;;;;5053936;28;20206;-62
2021/01/21 09:12:36;;;;;;;4.50;0.60;;;15.50;79.20;;;;;;5053790;28;20209;-64
2021/01/21 09:15:05;;;;;;;0.97;0.53;;;15.60;79.00;;;;;;5053338;28;20263;-63
2021/01/21 09:17:32;;;;;;;0.87;0.47;;;15.70;78.40;;;;;;5053093;28;20218;-64
2021/01/21 09:19:59;;;;;;;1.27;0.57;;;15.50;79.10;;;;;;5054242;28;20212;-64
2021/01/21 09:22:28;;;;;;;1.20;0.60;;;15.60;79.10;;;;;;5054197;28;20209;-62
2021/01/21 09:27:25;;;;;;;0.67;0.40;;;15.50;79.60;;;;;;5065664;28;20229;-59
2021/01/21 09:29:55;;;;;;;2.57;0.63;;;15.60;79.40;;;;;;5059334;28;20213;-60
2021/01/21 09:32:22;;;;;;;5.03;1.00;;;15.80;79.10;;;;;;5063398;28;20210;-59
2021/01/21 09:34:57;;;;;;;1.37;0.60;;;15.90;79.20;;;;;;5060846;28;20765;-60
2021/01/21 09:37:26;;;;;;;1.23;0.60;;;16.10;78.80;;;;;;5040557;28;20618;-60
2021/01/21 09:39:53;;;;;;;0.60;0.40;;;16.20;78.20;;;;;;5042552;28;20206;-58
2021/01/21 09:42:23;;;;;;;0.90;0.63;;;16.10;78.20;;;;;;5038992;28;20210;-60
2021/01/21 09:44:50;;;;;;;1.63;0.57;;;16.20;78.40;;;;;;5041531;28;20241;-59
2021/01/21 09:47:17;;;;;;;2.17;0.50;;;16.10;78.20;;;;;;5033033;28;20683;-59
2021/01/21 09:49:44;;;;;;;0.93;0.33;;;16.00;78.70;;;;;;5032457;28;20221;-59
2021/01/21 09:52:11;;;;;;;5.23;0.80;;;16.00;79.10;;;;;;5032647;28;20202;-59
2021/01/21 09:54:37;;;;;;;0.80;0.60;;;15.80;79.80;;;;;;5032451;28;20210;-59
2021/01/21 09:57:04;;;;;;;2.43;0.73;;;15.70;80.20;;;;;;5031602;28;20230;-59
2021/01/21 09:59:30;;;;;;;1.00;0.90;;;15.40;80.70;;;;;;5032401;28;20209;-60
2021/01/21 10:01:57;;;;;;;1.23;0.53;;;15.10;81.50;;;;;;5032317;28;20210;-58
2021/01/21 10:04:24;;;;;;;1.70;0.60;;;14.80;82.50;;;;;;5032111;28;20202;-61
2021/01/21 10:06:50;;;;;;;1.63;0.60;;;14.70;83.10;;;;;;5032363;28;20603;-60
2021/01/21 10:09:17;;;;;;;1.30;0.50;;;14.70;83.30;;;;;;5032234;28;20264;-60
2021/01/21 10:11:43;;;;;;;1.80;0.50;;;14.70;83.50;;;;;;5032444;28;20697;-59
2021/01/21 10:14:10;;;;;;;1.60;0.80;;;14.60;84.00;;;;;;5032898;28;20202;-60
2021/01/21 10:16:36;;;;;;;1.67;0.80;;;14.70;84.10;;;;;;5032325;28;20237;-59
2021/01/21 10:19:03;;;;;;;4.03;1.67;;;14.80;83.80;;;;;;5032560;28;20258;-60
2021/01/21 10:21:30;;;;;;;1.70;0.67;;;14.90;84.00;;;;;;5031786;28;20206;-58
2021/01/21 10:23:56;;;;;;;0.70;0.60;;;15.00;83.60;;;;;;5032060;28;20206;-58
2021/01/21 10:26:22;;;;;;;2.77;0.60;;;15.20;83.30;;;;;;5031421;28;20238;-58
2021/01/21 10:28:49;;;;;;;0.53;0.53;;;15.30;83.10;;;;;;5031980;28;20210;-58
2021/01/21 10:31:15;;;;;;;2.67;0.70;;;15.30;82.30;;;;;;5031365;28;20678;-58
2021/01/21 10:33:43;;;;;;;1.03;0.67;;;15.40;82.80;;;;;;5031703;28;20300;-58
2021/01/21 10:36:09;;;;;;;0.50;0.40;;;15.50;82.50;;;;;;5031544;28;20644;-57
2021/01/21 10:38:37;;;;;;;0.37;0.30;;;15.70;82.20;;;;;;5031519;28;20226;-57
2021/01/21 10:41:04;;;;;;;1.77;0.80;;;16.00;82.00;;;;;;5031889;28;20214;-58
2021/01/21 10:43:30;;;;;;;1.50;0.43;;;16.20;81.30;;;;;;5031349;28;20206;-59
2021/01/21 10:45:56;;;;;;;0.43;0.40;;;16.40;80.80;;;;;;5031540;28;20223;-58
2021/01/21 10:48:23;;;;;;;1.90;0.70;;;16.60;79.80;;;;;;5031398;28;20203;-58
2021/01/21 10:50:49;;;;;;;0.40;0.40;;;16.80;79.50;;;;;;5031893;28;20202;-57
2021/01/21 10:53:15;;;;;;;1.37;0.50;;;16.80;79.20;;;;;;5031528;28;20210;-58
2021/01/21 10:55:42;;;;;;;0.90;0.50;;;16.80;79.20;;;;;;5031112;28;20226;-58
2021/01/21 10:58:08;;;;;;;0.90;0.80;;;16.70;79.40;;;;;;5031131;28;20801;-58
2021/01/21 11:00:34;;;;;;;0.73;0.50;;;16.50;79.30;;;;;;5031654;28;20620;-58
2021/01/21 11:03:01;;;;;;;1.63;0.70;;;16.60;80.00;;;;;;5031303;28;20708;-58
2021/01/21 11:05:27;;;;;;;1.87;0.40;;;16.50;79.60;;;;;;5031563;28;20234;-59
2021/01/21 11:07:53;;;;;;;1.13;0.70;;;16.50;79.60;;;;;;5030843;28;20202;-58
2021/01/21 11:10:20;;;;;;;1.77;0.50;;;16.60;79.30;;;;;;5031449;28;20202;-59
2021/01/21 11:12:48;;;;;;;2.57;1.30;;;16.60;79.80;;;;;;5031275;28;20260;-58
2021/01/21 11:15:15;;;;;;;1.10;0.40;;;16.60;79.60;;;;;;5030818;28;20729;-58
2021/01/21 11:17:41;;;;;;;2.60;0.53;;;16.70;79.40;;;;;;5030708;28;20265;-58
2021/01/21 11:20:08;;;;;;;3.30;0.80;;;16.70;79.40;;;;;;5031205;28;20221;-58
2021/01/21 11:22:36;;;;;;;0.53;0.30;;;16.90;79.50;;;;;;5030668;28;20210;-59
2021/01/21 11:25:04;;;;;;;1.20;0.70;;;17.10;79.60;;;;;;5030601;28;20301;-59
2021/01/21 11:27:30;;;;;;;1.73;0.60;;;17.20;79.60;;;;;;5030782;28;20731;-59
2021/01/21 11:29:57;;;;;;;0.97;0.60;;;17.30;79.60;;;;;;5031133;28;20601;-61
2021/01/21 11:32:23;;;;;;;0.80;0.57;;;17.40;79.10;;;;;;5030823;28;20293;-60
2021/01/21 11:34:49;;;;;;;0.83;0.70;;;17.40;78.80;;;;;;5031128;28;20213;-60
2021/01/21 11:37:15;;;;;;;0.90;0.60;;;17.30;79.30;;;;;;5030873;28;20233;-60
2021/01/21 11:39:42;;;;;;;3.27;0.50;;;17.50;79.20;;;;;;5030544;28;20604;-60
2021/01/21 11:42:08;;;;;;;2.40;1.00;;;17.70;78.60;;;;;;5030059;28;20297;-60
2021/01/21 11:44:34;;;;;;;1.27;0.73;;;17.80;78.40;;;;;;5030712;28;20217;-59
2021/01/21 11:47:01;;;;;;;0.53;0.40;;;17.40;78.30;;;;;;5031059;28;20222;-59
2021/01/21 11:49:27;;;;;;;1.77;0.70;;;17.20;79.60;;;;;;5029972;28;20732;-61
2021/01/21 11:51:55;;;;;;;1.73;0.90;;;17.20;79.90;;;;;;5031016;28;20214;-60
2021/01/21 11:54:21;;;;;;;0.70;0.50;;;17.20;79.80;;;;;;5030386;28;20670;-60
2021/01/21 11:56:47;;;;;;;1.50;0.63;;;17.40;79.30;;;;;;5030367;28;20234;-62
2021/01/21 11:59:14;;;;;;;1.43;0.67;;;17.50;78.80;;;;;;5030477;28;20264;-62
2021/01/21 12:01:41;;;;;;;1.00;0.50;;;17.50;78.60;;;;;;5030536;28;20592;-61
2021/01/21 12:04:08;;;;;;;2.47;0.50;;;17.40;78.70;;;;;;5030177;28;20210;-58
2021/01/21 12:06:35;;;;;;;1.43;0.70;;;17.30;78.70;;;;;;5030699;28;20230;-60
2021/01/21 12:09:03;;;;;;;0.70;0.57;;;17.40;78.60;;;;;;5030521;28;20206;-59
2021/01/21 12:11:29;;;;;;;1.40;0.63;;;17.40;78.30;;;;;;5030106;28;20241;-60
2021/01/21 12:13:55;;;;;;;0.60;0.60;;;17.40;78.00;;;;;;5030284;28;20256;-64
2021/01/21 12:16:21;;;;;;;1.67;0.70;;;17.40;77.90;;;;;;5030479;28;20227;-58
2021/01/21 12:18:48;;;;;;;1.33;0.80;;;17.40;78.00;;;;;;5029816;28;20230;-59
2021/01/21 12:21:15;;;;;;;1.50;0.80;;;17.30;78.10;;;;;;5030468;28;20210;-60
2021/01/21 12:23:41;;;;;;;1.33;0.70;;;17.40;78.20;;;;;;5030373;28;20351;-61
2021/01/21 12:26:07;;;;;;;1.63;0.70;;;17.40;77.80;;;;;;5030078;28;20323;-62
2021/01/21 12:28:33;;;;;;;2.60;0.63;;;17.20;78.50;;;;;;5030599;28;20202;-58
2021/01/21 12:30:59;;;;;;;3.53;0.77;;;17.30;78.20;;;;;;5030173;28;20297;-58
2021/01/21 12:33:26;;;;;;;2.00;0.50;;;17.30;77.80;;;;;;5030349;28;20206;-58
2021/01/21 12:35:52;;;;;;;0.83;0.60;;;17.30;77.50;;;;;;5030064;28;20709;-59
2021/01/21 12:38:19;;;;;;;3.67;0.73;;;17.10;78.00;;;;;;5030408;28;20312;-58
2021/01/21 12:40:46;;;;;;;1.30;0.80;;;17.00;77.80;;;;;;5030385;28;20207;-57
2021/01/21 12:43:12;;;;;;;0.70;0.63;;;17.00;78.20;;;;;;5030316;28;20210;-58
2021/01/21 12:45:40;;;;;;;2.73;1.03;;;16.80;78.30;;;;;;5029961;28;20253;-58
2021/01/21 12:48:07;;;;;;;0.50;0.50;;;16.70;79.00;;;;;;5030155;28;20212;-58
2021/01/21 12:50:33;;;;;;;0.60;0.60;;;16.80;79.00;;;;;;5030146;28;20298;-58
2021/01/21 12:53:00;;;;;;;1.03;0.60;;;16.90;78.80;;;;;;5030252;28;20261;-58
2021/01/21 12:55:27;;;;;;;0.90;0.50;;;16.90;79.10;;;;;;5033533;28;20712;-58